Terminal Aerodrome Forecast
Issued by NWS

Home | Current Version | Previous Version | Text Only | Print | Product List | Glossary On
Versions: 1 2 3 4 5 6 7 8 9 10 11 12 13 14 15
878
FTAK31 PAJN 281121
TAFAGY
TAF
PAGY 281121Z 2812/2912 19012G20KT P6SM SCT020 OVC050
     FM282100 21011KT P6SM VCSH BKN030
     FM290900 19008KT 6SM -SHRASN OVC025
      AMD LTD TO CLD VIS AND WIND=

USA.gov is the U.S. government's official web portal to all federal, state and local government web resources and services.